Terminal Aerodrome Forecast
Issued by NWS Caribou, ME

Current Version | Previous Version | Text Only | Print | Product List | Glossary On
Versions: 1 2 3 4 5 6 7 8 9 10 11 12 13 14 15 16 17 18 19 20 21 22 23 24 25 26 27
000 FTUS41 KCAR 011700 TAFCAR TAF KCAR 011720Z 0118/0218 05004KT P6SM BKN010 FM011900 06006KT P6SM VCSH BKN018 FM020200 11004KT P6SM BKN015 FM020400 12004KT P6SM BKN008 FM020900 14005KT 6SM BR BKN003 FM021100 15006KT 4SM BR BKN003 FM021200 16006KT 6SM BR SCT003 BKN006 FM021500 16006KT P6SM OVC025=

USA.gov is the U.S. government's official web portal to all federal, state and local government web resources and services.